sensor_id;sensor_type;location;lat;lon;timestamp;P1;durP1;ratioP1;P2;durP2;ratioP2
92;SDS011;16232;48.800;9.002;2023-08-01T00:00:44;4.53;;;3.53;;
92;SDS011;16232;48.800;9.002;2023-08-01T00:03:12;4.77;;;3.77;;
92;SDS011;16232;48.800;9.002;2023-08-01T00:05:39;6.53;;;4.00;;
92;SDS011;16232;48.800;9.002;2023-08-01T00:08:10;7.60;;;4.07;;
92;SDS011;16232;48.800;9.002;2023-08-01T00:10:38;4.47;;;3.77;;
92;SDS011;16232;48.800;9.002;2023-08-01T00:13:06;7.00;;;4.00;;
92;SDS011;16232;48.800;9.002;2023-08-01T00:15:34;6.07;;;4.00;;
92;SDS011;16232;48.800;9.002;2023-08-01T00:18:02;5.53;;;4.00;;
92;SDS011;16232;48.800;9.002;2023-08-01T00:20:29;5.80;;;3.80;;
92;SDS011;16232;48.800;9.002;2023-08-01T00:22:57;8.07;;;4.33;;
92;SDS011;16232;48.800;9.002;2023-08-01T00:25:24;5.87;;;3.70;;
92;SDS011;16232;48.800;9.002;2023-08-01T00:27:52;6.57;;;4.10;;
92;SDS011;16232;48.800;9.002;2023-08-01T00:30:20;5.23;;;4.30;;
92;SDS011;16232;48.800;9.002;2023-08-01T00:32:48;6.63;;;4.20;;
92;SDS011;16232;48.800;9.002;2023-08-01T00:35:16;6.73;;;3.90;;
92;SDS011;16232;48.800;9.002;2023-08-01T00:37:43;6.83;;;3.77;;
92;SDS011;16232;48.800;9.002;2023-08-01T00:40:11;6.57;;;4.63;;
92;SDS011;16232;48.800;9.002;2023-08-01T00:42:38;5.83;;;4.37;;
92;SDS011;16232;48.800;9.002;2023-08-01T00:45:06;5.93;;;3.83;;
92;SDS011;16232;48.800;9.002;2023-08-01T00:47:34;5.97;;;4.30;;
92;SDS011;16232;48.800;9.002;2023-08-01T00:50:03;8.33;;;4.67;;
92;SDS011;16232;48.800;9.002;2023-08-01T00:52:30;7.10;;;4.03;;
92;SDS011;16232;48.800;9.002;2023-08-01T00:54:58;7.60;;;4.33;;
92;SDS011;16232;48.800;9.002;2023-08-01T00:57:25;7.00;;;4.07;;
92;SDS011;16232;48.800;9.002;2023-08-01T00:59:53;5.70;;;4.57;;
92;SDS011;16232;48.800;9.002;2023-08-01T01:02:20;6.63;;;4.00;;
92;SDS011;16232;48.800;9.002;2023-08-01T01:04:47;5.77;;;4.37;;
92;SDS011;16232;48.800;9.002;2023-08-01T01:07:16;6.70;;;4.27;;
92;SDS011;16232;48.800;9.002;2023-08-01T01:09:44;7.07;;;4.50;;
92;SDS011;16232;48.800;9.002;2023-08-01T01:12:11;6.77;;;4.77;;
92;SDS011;16232;48.800;9.002;2023-08-01T01:14:39;7.90;;;4.40;;
92;SDS011;16232;48.800;9.002;2023-08-01T01:17:06;4.63;;;3.50;;
92;SDS011;16232;48.800;9.002;2023-08-01T01:19:33;5.50;;;4.10;;
92;SDS011;16232;48.800;9.002;2023-08-01T01:22:03;5.13;;;3.97;;
92;SDS011;16232;48.800;9.002;2023-08-01T01:24:30;4.67;;;4.17;;
92;SDS011;16232;48.800;9.002;2023-08-01T01:26:59;5.00;;;3.97;;
92;SDS011;16232;48.800;9.002;2023-08-01T01:29:29;6.00;;;4.50;;
92;SDS011;16232;48.800;9.002;2023-08-01T01:31:57;7.57;;;4.70;;
92;SDS011;16232;48.800;9.002;2023-08-01T01:34:25;6.17;;;4.27;;
92;SDS011;16232;48.800;9.002;2023-08-01T01:36:53;11.60;;;4.80;;
92;SDS011;16232;48.800;9.002;2023-08-01T01:39:22;6.10;;;4.43;;
92;SDS011;16232;48.800;9.002;2023-08-01T01:41:49;6.73;;;4.63;;
92;SDS011;16232;48.800;9.002;2023-08-01T01:44:17;6.50;;;4.60;;
92;SDS011;16232;48.800;9.002;2023-08-01T01:46:44;7.13;;;4.63;;
92;SDS011;16232;48.800;9.002;2023-08-01T01:49:11;7.40;;;5.40;;
92;SDS011;16232;48.800;9.002;2023-08-01T01:51:39;6.87;;;5.23;;
92;SDS011;16232;48.800;9.002;2023-08-01T01:54:06;8.37;;;5.43;;
92;SDS011;16232;48.800;9.002;2023-08-01T01:56:35;8.20;;;5.03;;
92;SDS011;16232;48.800;9.002;2023-08-01T01:59:02;8.97;;;5.43;;
92;SDS011;16232;48.800;9.002;2023-08-01T02:01:30;8.13;;;5.27;;
92;SDS011;16232;48.800;9.002;2023-08-01T02:03:57;5.20;;;4.70;;
92;SDS011;16232;48.800;9.002;2023-08-01T02:06:25;7.27;;;6.57;;
92;SDS011;16232;48.800;9.002;2023-08-01T02:08:52;7.73;;;5.23;;
92;SDS011;16232;48.800;9.002;2023-08-01T02:11:19;7.30;;;5.40;;
92;SDS011;16232;48.800;9.002;2023-08-01T02:13:48;8.03;;;5.13;;
92;SDS011;16232;48.800;9.002;2023-08-01T02:16:15;7.17;;;5.93;;
92;SDS011;16232;48.800;9.002;2023-08-01T02:18:43;8.63;;;5.87;;
92;SDS011;16232;48.800;9.002;2023-08-01T02:21:11;7.27;;;4.87;;
92;SDS011;16232;48.800;9.002;2023-08-01T02:23:38;7.67;;;5.20;;
92;SDS011;16232;48.800;9.002;2023-08-01T02:26:05;7.83;;;5.37;;
92;SDS011;16232;48.800;9.002;2023-08-01T02:28:33;8.90;;;6.00;;
92;SDS011;16232;48.800;9.002;2023-08-01T02:31:02;7.73;;;5.77;;
92;SDS011;16232;48.800;9.002;2023-08-01T02:33:29;9.13;;;6.87;;
92;SDS011;16232;48.800;9.002;2023-08-01T02:35:57;8.07;;;5.23;;
92;SDS011;16232;48.800;9.002;2023-08-01T02:38:24;7.97;;;5.67;;
92;SDS011;16232;48.800;9.002;2023-08-01T02:40:52;9.50;;;6.13;;
92;SDS011;16232;48.800;9.002;2023-08-01T02:43:19;7.83;;;5.90;;
92;SDS011;16232;48.800;9.002;2023-08-01T02:45:47;6.17;;;5.57;;
92;SDS011;16232;48.800;9.002;2023-08-01T02:48:16;9.70;;;6.13;;
92;SDS011;16232;48.800;9.002;2023-08-01T02:50:43;6.20;;;5.60;;
92;SDS011;16232;48.800;9.002;2023-08-01T02:53:11;7.60;;;5.27;;
92;SDS011;16232;48.800;9.002;2023-08-01T02:55:38;7.33;;;5.70;;
92;SDS011;16232;48.800;9.002;2023-08-01T02:58:05;9.80;;;5.80;;
92;SDS011;16232;48.800;9.002;2023-08-01T03:00:33;10.50;;;6.10;;
92;SDS011;16232;48.800;9.002;2023-08-01T03:03:01;6.27;;;5.10;;
92;SDS011;16232;48.800;9.002;2023-08-01T03:05:29;6.60;;;5.20;;
92;SDS011;16232;48.800;9.002;2023-08-01T03:07:57;8.30;;;5.30;;
92;SDS011;16232;48.800;9.002;2023-08-01T03:10:24;5.70;;;4.83;;
92;SDS011;16232;48.800;9.002;2023-08-01T03:12:52;6.77;;;4.80;;
92;SDS011;16232;48.800;9.002;2023-08-01T03:15:19;6.97;;;5.37;;
92;SDS011;16232;48.800;9.002;2023-08-01T03:17:46;7.30;;;5.37;;
92;SDS011;16232;48.800;9.002;2023-08-01T03:20:14;10.00;;;5.30;;
92;SDS011;16232;48.800;9.002;2023-08-01T03:22:43;6.30;;;5.00;;
92;SDS011;16232;48.800;9.002;2023-08-01T03:25:10;5.87;;;4.83;;
92;SDS011;16232;48.800;9.002;2023-08-01T03:27:38;6.43;;;4.87;;
92;SDS011;16232;48.800;9.002;2023-08-01T03:30:06;8.70;;;5.30;;
92;SDS011;16232;48.800;9.002;2023-08-01T03:32:34;6.80;;;4.50;;
92;SDS011;16232;48.800;9.002;2023-08-01T03:35:02;7.30;;;4.53;;
92;SDS011;16232;48.800;9.002;2023-08-01T03:37:30;8.30;;;4.67;;
92;SDS011;16232;48.800;9.002;2023-08-01T03:40:00;4.80;;;4.30;;
92;SDS011;16232;48.800;9.002;2023-08-01T03:42:27;6.10;;;3.70;;
92;SDS011;16232;48.800;9.002;2023-08-01T03:44:55;5.40;;;3.93;;
92;SDS011;16232;48.800;9.002;2023-08-01T03:47:22;6.00;;;3.90;;
92;SDS011;16232;48.800;9.002;2023-08-01T03:49:53;7.00;;;4.83;;
92;SDS011;16232;48.800;9.002;2023-08-01T03:52:20;6.97;;;4.30;;
92;SDS011;16232;48.800;9.002;2023-08-01T03:54:48;6.40;;;4.30;;
92;SDS011;16232;48.800;9.002;2023-08-01T03:57:16;5.17;;;4.60;;
92;SDS011;16232;48.800;9.002;2023-08-01T03:59:44;6.00;;;4.10;;
92;SDS011;16232;48.800;9.002;2023-08-01T04:02:13;5.77;;;4.10;;
92;SDS011;16232;48.800;9.002;2023-08-01T04:04:40;3.60;;;3.10;;
92;SDS011;16232;48.800;9.002;2023-08-01T04:07:08;6.87;;;3.90;;
92;SDS011;16232;48.800;9.002;2023-08-01T04:09:35;6.27;;;3.70;;
92;SDS011;16232;48.800;9.002;2023-08-01T04:12:04;5.43;;;3.93;;
92;SDS011;16232;48.800;9.002;2023-08-01T04:14:33;5.17;;;3.37;;
92;SDS011;16232;48.800;9.002;2023-08-01T04:17:00;5.57;;;3.30;;
92;SDS011;16232;48.800;9.002;2023-08-01T04:19:28;5.40;;;3.40;;
92;SDS011;16232;48.800;9.002;2023-08-01T04:21:55;4.33;;;3.20;;
92;SDS011;16232;48.800;9.002;2023-08-01T04:24:22;5.87;;;3.50;;
92;SDS011;16232;48.800;9.002;2023-08-01T04:26:50;5.17;;;3.67;;
92;SDS011;16232;48.800;9.002;2023-08-01T04:29:19;4.13;;;3.43;;
92;SDS011;16232;48.800;9.002;2023-08-01T04:31:48;5.33;;;3.40;;
92;SDS011;16232;48.800;9.002;2023-08-01T04:34:15;7.47;;;3.60;;
92;SDS011;16232;48.800;9.002;2023-08-01T04:36:42;6.97;;;3.87;;
92;SDS011;16232;48.800;9.002;2023-08-01T04:39:10;6.33;;;3.57;;
92;SDS011;16232;48.800;9.002;2023-08-01T04:41:37;5.83;;;3.37;;
92;SDS011;16232;48.800;9.002;2023-08-01T04:44:05;4.13;;;3.10;;
92;SDS011;16232;48.800;9.002;2023-08-01T04:46:32;2.53;;;2.33;;
92;SDS011;16232;48.800;9.002;2023-08-01T04:49:01;4.20;;;2.73;;
92;SDS011;16232;48.800;9.002;2023-08-01T04:51:29;5.73;;;3.27;;
92;SDS011;16232;48.800;9.002;2023-08-01T04:53:56;4.10;;;2.70;;
92;SDS011;16232;48.800;9.002;2023-08-01T04:56:23;4.80;;;2.33;;
92;SDS011;16232;48.800;9.002;2023-08-01T04:58:51;3.00;;;2.60;;
92;SDS011;16232;48.800;9.002;2023-08-01T05:01:18;3.17;;;2.80;;
92;SDS011;16232;48.800;9.002;2023-08-01T05:03:46;4.70;;;3.07;;
92;SDS011;16232;48.800;9.002;2023-08-01T05:06:14;4.30;;;2.83;;
92;SDS011;16232;48.800;9.002;2023-08-01T05:08:42;3.97;;;2.90;;
92;SDS011;16232;48.800;9.002;2023-08-01T05:11:09;3.60;;;2.93;;
92;SDS011;16232;48.800;9.002;2023-08-01T05:13:37;3.77;;;2.83;;
92;SDS011;16232;48.800;9.002;2023-08-01T05:16:04;3.23;;;2.63;;
92;SDS011;16232;48.800;9.002;2023-08-01T05:18:32;5.07;;;3.40;;
92;SDS011;16232;48.800;9.002;2023-08-01T05:20:59;5.37;;;3.20;;
92;SDS011;16232;48.800;9.002;2023-08-01T05:23:28;4.17;;;3.07;;
92;SDS011;16232;48.800;9.002;2023-08-01T05:25:55;4.60;;;2.97;;
92;SDS011;16232;48.800;9.002;2023-08-01T05:28:23;5.23;;;3.00;;
92;SDS011;16232;48.800;9.002;2023-08-01T05:30:50;4.30;;;3.20;;
92;SDS011;16232;48.800;9.002;2023-08-01T05:33:18;4.97;;;2.70;;
92;SDS011;16232;48.800;9.002;2023-08-01T05:35:45;5.20;;;3.07;;
92;SDS011;16232;48.800;9.002;2023-08-01T05:38:12;6.47;;;3.37;;
92;SDS011;16232;48.800;9.002;2023-08-01T05:40:41;4.07;;;3.50;;
92;SDS011;16232;48.800;9.002;2023-08-01T05:43:09;5.70;;;3.90;;
92;SDS011;16232;48.800;9.002;2023-08-01T05:45:36;5.33;;;3.40;;
92;SDS011;16232;48.800;9.002;2023-08-01T05:48:04;4.63;;;4.00;;
92;SDS011;16232;48.800;9.002;2023-08-01T05:50:31;7.03;;;3.67;;
92;SDS011;16232;48.800;9.002;2023-08-01T05:52:58;4.93;;;3.87;;
92;SDS011;16232;48.800;9.002;2023-08-01T05:55:26;6.87;;;3.77;;
92;SDS011;16232;48.800;9.002;2023-08-01T05:57:55;6.33;;;4.43;;
92;SDS011;16232;48.800;9.002;2023-08-01T06:00:22;5.47;;;3.37;;
92;SDS011;16232;48.800;9.002;2023-08-01T06:02:50;7.40;;;3.97;;
92;SDS011;16232;48.800;9.002;2023-08-01T06:05:17;4.77;;;3.80;;
92;SDS011;16232;48.800;9.002;2023-08-01T06:07:44;4.70;;;3.67;;
92;SDS011;16232;48.800;9.002;2023-08-01T06:10:12;4.23;;;3.23;;
92;SDS011;16232;48.800;9.002;2023-08-01T06:12:40;5.60;;;3.60;;
92;SDS011;16232;48.800;9.002;2023-08-01T06:15:09;4.93;;;3.80;;
92;SDS011;16232;48.800;9.002;2023-08-01T06:17:37;5.10;;;3.30;;
92;SDS011;16232;48.800;9.002;2023-08-01T06:20:04;5.97;;;4.00;;
92;SDS011;16232;48.800;9.002;2023-08-01T06:22:32;4.50;;;3.90;;
92;SDS011;16232;48.800;9.002;2023-08-01T06:25:00;5.77;;;4.33;;
92;SDS011;16232;48.800;9.002;2023-08-01T06:27:27;5.10;;;4.17;;
92;SDS011;16232;48.800;9.002;2023-08-01T06:29:55;7.97;;;4.77;;
92;SDS011;16232;48.800;9.002;2023-08-01T06:32:23;8.30;;;4.80;;
92;SDS011;16232;48.800;9.002;2023-08-01T06:34:51;6.30;;;5.03;;
92;SDS011;16232;48.800;9.002;2023-08-01T06:37:18;7.23;;;4.97;;
92;SDS011;16232;48.800;9.002;2023-08-01T06:39:46;6.77;;;5.23;;
92;SDS011;16232;48.800;9.002;2023-08-01T06:42:13;6.90;;;5.27;;
92;SDS011;16232;48.800;9.002;2023-08-01T06:44:41;8.47;;;5.90;;
92;SDS011;16232;48.800;9.002;2023-08-01T06:47:08;6.27;;;5.57;;
92;SDS011;16232;48.800;9.002;2023-08-01T06:49:37;10.00;;;6.00;;
92;SDS011;16232;48.800;9.002;2023-08-01T06:52:05;8.37;;;6.07;;
92;SDS011;16232;48.800;9.002;2023-08-01T06:54:32;6.30;;;4.90;;
92;SDS011;16232;48.800;9.002;2023-08-01T06:57:00;10.30;;;6.50;;
92;SDS011;16232;48.800;9.002;2023-08-01T06:59:27;7.43;;;6.10;;
92;SDS011;16232;48.800;9.002;2023-08-01T07:01:55;8.27;;;5.87;;
92;SDS011;16232;48.800;9.002;2023-08-01T07:04:22;8.20;;;6.10;;
92;SDS011;16232;48.800;9.002;2023-08-01T07:06:51;9.47;;;6.10;;
92;SDS011;16232;48.800;9.002;2023-08-01T07:09:19;8.17;;;5.90;;
92;SDS011;16232;48.800;9.002;2023-08-01T07:11:46;9.97;;;6.50;;
92;SDS011;16232;48.800;9.002;2023-08-01T07:14:13;6.57;;;5.93;;
92;SDS011;16232;48.800;9.002;2023-08-01T07:16:41;7.90;;;6.50;;
92;SDS011;16232;48.800;9.002;2023-08-01T07:19:08;10.40;;;7.10;;
92;SDS011;16232;48.800;9.002;2023-08-01T07:21:36;6.63;;;5.70;;
92;SDS011;16232;48.800;9.002;2023-08-01T07:24:05;10.63;;;5.70;;
92;SDS011;16232;48.800;9.002;2023-08-01T07:26:32;9.73;;;6.27;;
92;SDS011;16232;48.800;9.002;2023-08-01T07:28:59;10.37;;;7.23;;
92;SDS011;16232;48.800;9.002;2023-08-01T07:31:27;9.20;;;5.80;;
92;SDS011;16232;48.800;9.002;2023-08-01T07:33:55;10.43;;;6.17;;
92;SDS011;16232;48.800;9.002;2023-08-01T07:36:22;8.10;;;6.43;;
92;SDS011;16232;48.800;9.002;2023-08-01T07:38:50;7.10;;;5.10;;
92;SDS011;16232;48.800;9.002;2023-08-01T07:41:18;7.90;;;5.40;;
92;SDS011;16232;48.800;9.002;2023-08-01T07:43:46;9.57;;;5.90;;
92;SDS011;16232;48.800;9.002;2023-08-01T07:46:14;12.10;;;5.20;;
92;SDS011;16232;48.800;9.002;2023-08-01T07:48:41;8.83;;;5.03;;
92;SDS011;16232;48.800;9.002;2023-08-01T07:51:09;4.87;;;4.27;;
92;SDS011;16232;48.800;9.002;2023-08-01T07:53:36;6.03;;;4.40;;
92;SDS011;16232;48.800;9.002;2023-08-01T07:56:04;5.43;;;4.50;;
92;SDS011;16232;48.800;9.002;2023-08-01T07:58:34;5.63;;;4.03;;
92;SDS011;16232;48.800;9.002;2023-08-01T08:01:02;5.20;;;3.80;;
92;SDS011;16232;48.800;9.002;2023-08-01T08:03:30;3.93;;;3.40;;
92;SDS011;16232;48.800;9.002;2023-08-01T08:05:57;5.10;;;3.47;;
92;SDS011;16232;48.800;9.002;2023-08-01T08:08:25;4.93;;;3.60;;
92;SDS011;16232;48.800;9.002;2023-08-01T08:10:53;4.03;;;2.60;;
92;SDS011;16232;48.800;9.002;2023-08-01T08:13:20;3.83;;;2.90;;
92;SDS011;16232;48.800;9.002;2023-08-01T08:15:50;3.10;;;2.60;;
92;SDS011;16232;48.800;9.002;2023-08-01T08:18:17;3.27;;;2.97;;
92;SDS011;16232;48.800;9.002;2023-08-01T08:20:45;4.53;;;2.60;;
92;SDS011;16232;48.800;9.002;2023-08-01T08:23:12;2.80;;;2.47;;
92;SDS011;16232;48.800;9.002;2023-08-01T08:25:40;3.90;;;2.70;;
92;SDS011;16232;48.800;9.002;2023-08-01T08:28:09;2.43;;;2.10;;
92;SDS011;16232;48.800;9.002;2023-08-01T08:30:37;3.17;;;2.27;;
92;SDS011;16232;48.800;9.002;2023-08-01T08:33:06;3.83;;;2.50;;
92;SDS011;16232;48.800;9.002;2023-08-01T08:35:33;3.33;;;2.40;;
92;SDS011;16232;48.800;9.002;2023-08-01T08:38:01;2.57;;;2.27;;
92;SDS011;16232;48.800;9.002;2023-08-01T08:40:29;2.93;;;2.17;;
92;SDS011;16232;48.800;9.002;2023-08-01T08:42:57;2.83;;;2.23;;
92;SDS011;16232;48.800;9.002;2023-08-01T08:45:25;2.93;;;1.93;;
92;SDS011;16232;48.800;9.002;2023-08-01T08:47:54;2.77;;;2.37;;
92;SDS011;16232;48.800;9.002;2023-08-01T08:50:24;2.27;;;2.00;;
92;SDS011;16232;48.800;9.002;2023-08-01T08:52:52;3.60;;;1.90;;
92;SDS011;16232;48.800;9.002;2023-08-01T08:55:19;2.83;;;1.30;;
92;SDS011;16232;48.800;9.002;2023-08-01T08:57:48;3.20;;;1.80;;
92;SDS011;16232;48.800;9.002;2023-08-01T09:00:17;3.20;;;1.70;;
92;SDS011;16232;48.800;9.002;2023-08-01T09:02:45;2.40;;;1.40;;
92;SDS011;16232;48.800;9.002;2023-08-01T09:05:12;1.77;;;1.30;;
92;SDS011;16232;48.800;9.002;2023-08-01T09:07:42;2.20;;;1.40;;
92;SDS011;16232;48.800;9.002;2023-08-01T09:10:10;1.90;;;1.30;;
92;SDS011;16232;48.800;9.002;2023-08-01T09:12:37;1.20;;;1.00;;
92;SDS011;16232;48.800;9.002;2023-08-01T09:15:05;1.73;;;1.40;;
92;SDS011;16232;48.800;9.002;2023-08-01T09:17:34;2.73;;;1.60;;
92;SDS011;16232;48.800;9.002;2023-08-01T09:20:05;2.03;;;1.30;;
92;SDS011;16232;48.800;9.002;2023-08-01T09:22:42;1.83;;;1.40;;
92;SDS011;16232;48.800;9.002;2023-08-01T09:25:10;1.23;;;1.13;;
92;SDS011;16232;48.800;9.002;2023-08-01T09:27:37;1.43;;;1.33;;
92;SDS011;16232;48.800;9.002;2023-08-01T09:30:06;1.50;;;1.30;;
92;SDS011;16232;48.800;9.002;2023-08-01T09:32:34;1.27;;;1.07;;
92;SDS011;16232;48.800;9.002;2023-08-01T09:35:01;1.70;;;1.17;;
92;SDS011;16232;48.800;9.002;2023-08-01T09:37:37;1.50;;;1.10;;
92;SDS011;16232;48.800;9.002;2023-08-01T09:40:07;0.90;;;0.90;;
92;SDS011;16232;48.800;9.002;2023-08-01T09:42:38;2.03;;;1.07;;
92;SDS011;16232;48.800;9.002;2023-08-01T09:45:07;1.37;;;1.00;;
92;SDS011;16232;48.800;9.002;2023-08-01T09:47:39;1.33;;;0.70;;
92;SDS011;16232;48.800;9.002;2023-08-01T09:50:06;0.97;;;0.70;;
92;SDS011;16232;48.800;9.002;2023-08-01T09:52:34;1.10;;;0.73;;
92;SDS011;16232;48.800;9.002;2023-08-01T09:55:01;0.77;;;0.60;;
92;SDS011;16232;48.800;9.002;2023-08-01T09:57:30;1.60;;;0.80;;
92;SDS011;16232;48.800;9.002;2023-08-01T09:59:58;1.57;;;0.50;;
92;SDS011;16232;48.800;9.002;2023-08-01T10:02:26;1.00;;;0.60;;
92;SDS011;16232;48.800;9.002;2023-08-01T10:04:57;0.40;;;0.40;;
92;SDS011;16232;48.800;9.002;2023-08-01T10:07:25;1.47;;;0.67;;
92;SDS011;16232;48.800;9.002;2023-08-01T10:09:53;0.70;;;0.40;;
92;SDS011;16232;48.800;9.002;2023-08-01T10:12:21;0.73;;;0.50;;
92;SDS011;16232;48.800;9.002;2023-08-01T10:14:51;0.40;;;0.40;;
92;SDS011;16232;48.800;9.002;2023-08-01T10:17:19;1.70;;;0.47;;
92;SDS011;16232;48.800;9.002;2023-08-01T10:19:49;0.80;;;0.37;;
92;SDS011;16232;48.800;9.002;2023-08-01T10:22:16;0.97;;;0.43;;
92;SDS011;16232;48.800;9.002;2023-08-01T10:24:44;0.43;;;0.30;;
92;SDS011;16232;48.800;9.002;2023-08-01T10:27:13;1.27;;;0.57;;
92;SDS011;16232;48.800;9.002;2023-08-01T10:29:41;0.50;;;0.37;;
92;SDS011;16232;48.800;9.002;2023-08-01T10:32:10;0.50;;;0.50;;
92;SDS011;16232;48.800;9.002;2023-08-01T10:34:37;1.63;;;0.70;;
92;SDS011;16232;48.800;9.002;2023-08-01T10:37:05;1.63;;;0.50;;
92;SDS011;16232;48.800;9.002;2023-08-01T10:39:32;0.50;;;0.50;;
92;SDS011;16232;48.800;9.002;2023-08-01T10:42:00;0.70;;;0.70;;
92;SDS011;16232;48.800;9.002;2023-08-01T10:44:28;2.23;;;0.70;;
92;SDS011;16232;48.800;9.002;2023-08-01T10:46:57;0.63;;;0.43;;
92;SDS011;16232;48.800;9.002;2023-08-01T10:49:37;0.50;;;0.50;;
92;SDS011;16232;48.800;9.002;2023-08-01T10:52:15;2.20;;;0.60;;
92;SDS011;16232;48.800;9.002;2023-08-01T10:54:43;2.10;;;0.63;;
92;SDS011;16232;48.800;9.002;2023-08-01T10:57:15;0.70;;;0.70;;
92;SDS011;16232;48.800;9.002;2023-08-01T10:59:42;0.97;;;0.63;;
92;SDS011;16232;48.800;9.002;2023-08-01T11:02:10;0.70;;;0.63;;
92;SDS011;16232;48.800;9.002;2023-08-01T11:04:39;0.60;;;0.60;;
92;SDS011;16232;48.800;9.002;2023-08-01T11:07:07;0.67;;;0.63;;
92;SDS011;16232;48.800;9.002;2023-08-01T11:09:38;1.13;;;0.70;;
92;SDS011;16232;48.800;9.002;2023-08-01T11:12:06;0.70;;;0.70;;
92;SDS011;16232;48.800;9.002;2023-08-01T11:14:34;0.93;;;0.70;;
92;SDS011;16232;48.800;9.002;2023-08-01T11:17:02;3.17;;;0.67;;
92;SDS011;16232;48.800;9.002;2023-08-01T11:19:29;1.77;;;0.70;;
92;SDS011;16232;48.800;9.002;2023-08-01T11:21:59;1.43;;;1.00;;
92;SDS011;16232;48.800;9.002;2023-08-01T11:24:35;0.80;;;0.70;;
92;SDS011;16232;48.800;9.002;2023-08-01T11:27:03;1.07;;;0.97;;
92;SDS011;16232;48.800;9.002;2023-08-01T11:29:30;0.80;;;0.80;;
92;SDS011;16232;48.800;9.002;2023-08-01T11:31:58;3.10;;;0.80;;
92;SDS011;16232;48.800;9.002;2023-08-01T11:34:26;1.13;;;0.87;;
92;SDS011;16232;48.800;9.002;2023-08-01T11:36:53;1.60;;;0.90;;
92;SDS011;16232;48.800;9.002;2023-08-01T11:39:26;0.87;;;0.80;;
92;SDS011;16232;48.800;9.002;2023-08-01T11:41:53;1.80;;;0.80;;
92;SDS011;16232;48.800;9.002;2023-08-01T11:44:23;2.50;;;1.00;;
92;SDS011;16232;48.800;9.002;2023-08-01T11:46:50;2.70;;;0.90;;
92;SDS011;16232;48.800;9.002;2023-08-01T11:49:18;2.03;;;1.00;;
92;SDS011;16232;48.800;9.002;2023-08-01T11:51:45;1.67;;;1.00;;
92;SDS011;16232;48.800;9.002;2023-08-01T11:54:13;1.13;;;1.03;;
92;SDS011;16232;48.800;9.002;2023-08-01T11:56:43;2.03;;;1.00;;
92;SDS011;16232;48.800;9.002;2023-08-01T11:59:11;2.73;;;1.00;;
92;SDS011;16232;48.800;9.002;2023-08-01T12:01:39;1.10;;;1.00;;
92;SDS011;16232;48.800;9.002;2023-08-01T12:04:07;2.30;;;1.10;;
92;SDS011;16232;48.800;9.002;2023-08-01T12:06:34;1.77;;;0.93;;
92;SDS011;16232;48.800;9.002;2023-08-01T12:09:08;1.50;;;0.80;;
92;SDS011;16232;48.800;9.002;2023-08-01T12:11:35;1.13;;;0.90;;
92;SDS011;16232;48.800;9.002;2023-08-01T12:14:06;1.83;;;1.00;;
92;SDS011;16232;48.800;9.002;2023-08-01T12:16:34;1.50;;;1.00;;
92;SDS011;16232;48.800;9.002;2023-08-01T12:19:02;2.23;;;1.00;;
92;SDS011;16232;48.800;9.002;2023-08-01T12:21:30;2.03;;;0.80;;
92;SDS011;16232;48.800;9.002;2023-08-01T12:23:58;1.10;;;1.00;;
92;SDS011;16232;48.800;9.002;2023-08-01T12:26:25;1.73;;;1.00;;
92;SDS011;16232;48.800;9.002;2023-08-01T12:28:53;3.37;;;1.00;;
92;SDS011;16232;48.800;9.002;2023-08-01T12:31:22;2.10;;;0.90;;
92;SDS011;16232;48.800;9.002;2023-08-01T12:33:49;0.93;;;0.90;;
92;SDS011;16232;48.800;9.002;2023-08-01T12:36:18;2.30;;;0.82;;
92;SDS011;16232;48.800;9.002;2023-08-01T12:38:45;1.92;;;1.00;;
92;SDS011;16232;48.800;9.002;2023-08-01T12:41:13;2.00;;;0.90;;
92;SDS011;16232;48.800;9.002;2023-08-01T12:43:40;2.03;;;0.90;;
92;SDS011;16232;48.800;9.002;2023-08-01T12:46:08;1.37;;;1.00;;
92;SDS011;16232;48.800;9.002;2023-08-01T12:48:37;0.97;;;0.80;;
92;SDS011;16232;48.800;9.002;2023-08-01T12:51:04;2.83;;;1.03;;
92;SDS011;16232;48.800;9.002;2023-08-01T12:53:31;1.33;;;0.90;;
92;SDS011;16232;48.800;9.002;2023-08-01T12:55:59;1.03;;;0.97;;
92;SDS011;16232;48.800;9.002;2023-08-01T12:58:27;1.50;;;1.10;;
92;SDS011;16232;48.800;9.002;2023-08-01T13:00:55;1.53;;;1.03;;
92;SDS011;16232;48.800;9.002;2023-08-01T13:03:23;2.43;;;1.10;;
92;SDS011;16232;48.800;9.002;2023-08-01T13:05:51;2.23;;;1.10;;
92;SDS011;16232;48.800;9.002;2023-08-01T13:08:19;6.00;;;1.40;;
92;SDS011;16232;48.800;9.002;2023-08-01T13:10:46;2.50;;;1.17;;
92;SDS011;16232;48.800;9.002;2023-08-01T13:13:15;2.37;;;1.27;;
92;SDS011;16232;48.800;9.002;2023-08-01T13:15:42;4.23;;;1.10;;
92;SDS011;16232;48.800;9.002;2023-08-01T13:18:10;2.17;;;0.87;;
92;SDS011;16232;48.800;9.002;2023-08-01T13:20:37;2.50;;;1.30;;
92;SDS011;16232;48.800;9.002;2023-08-01T13:23:06;1.63;;;1.00;;
92;SDS011;16232;48.800;9.002;2023-08-01T13:25:34;2.03;;;1.30;;
92;SDS011;16232;48.800;9.002;2023-08-01T13:28:02;1.70;;;1.20;;
92;SDS011;16232;48.800;9.002;2023-08-01T13:30:29;1.20;;;1.10;;
92;SDS011;16232;48.800;9.002;2023-08-01T13:32:57;1.60;;;1.17;;
92;SDS011;16232;48.800;9.002;2023-08-01T13:35:24;1.87;;;0.97;;
92;SDS011;16232;48.800;9.002;2023-08-01T13:37:51;1.97;;;1.10;;
92;SDS011;16232;48.800;9.002;2023-08-01T13:40:20;1.27;;;1.17;;
92;SDS011;16232;48.800;9.002;2023-08-01T13:42:48;4.43;;;1.60;;
92;SDS011;16232;48.800;9.002;2023-08-01T13:45:15;1.67;;;1.20;;
92;SDS011;16232;48.800;9.002;2023-08-01T13:47:43;1.33;;;1.23;;
92;SDS011;16232;48.800;9.002;2023-08-01T13:50:10;1.97;;;1.13;;
92;SDS011;16232;48.800;9.002;2023-08-01T13:52:38;1.80;;;1.10;;
92;SDS011;16232;48.800;9.002;2023-08-01T13:55:05;2.53;;;1.20;;
92;SDS011;16232;48.800;9.002;2023-08-01T13:57:34;1.57;;;1.10;;
92;SDS011;16232;48.800;9.002;2023-08-01T14:00:02;2.17;;;1.40;;
92;SDS011;16232;48.800;9.002;2023-08-01T14:02:30;1.67;;;1.30;;
92;SDS011;16232;48.800;9.002;2023-08-01T14:04:57;1.80;;;1.10;;
92;SDS011;16232;48.800;9.002;2023-08-01T14:07:25;2.03;;;1.10;;
92;SDS011;16232;48.800;9.002;2023-08-01T14:09:52;2.90;;;1.30;;
92;SDS011;16232;48.800;9.002;2023-08-01T14:12:20;1.80;;;0.90;;
92;SDS011;16232;48.800;9.002;2023-08-01T14:14:51;2.30;;;1.13;;
92;SDS011;16232;48.800;9.002;2023-08-01T14:17:18;2.37;;;1.10;;
92;SDS011;16232;48.800;9.002;2023-08-01T14:19:46;2.27;;;1.30;;
92;SDS011;16232;48.800;9.002;2023-08-01T14:22:13;1.43;;;1.10;;
92;SDS011;16232;48.800;9.002;2023-08-01T14:24:41;1.70;;;1.10;;
92;SDS011;16232;48.800;9.002;2023-08-01T14:27:08;2.73;;;1.10;;
92;SDS011;16232;48.800;9.002;2023-08-01T14:29:36;2.13;;;1.10;;
92;SDS011;16232;48.800;9.002;2023-08-01T14:32:05;1.90;;;1.20;;
92;SDS011;16232;48.800;9.002;2023-08-01T14:34:32;2.33;;;1.00;;
92;SDS011;16232;48.800;9.002;2023-08-01T14:37:00;1.27;;;1.10;;
92;SDS011;16232;48.800;9.002;2023-08-01T14:39:28;3.07;;;1.20;;
92;SDS011;16232;48.800;9.002;2023-08-01T14:41:55;2.80;;;1.10;;
92;SDS011;16232;48.800;9.002;2023-08-01T14:44:23;2.00;;;1.20;;
92;SDS011;16232;48.800;9.002;2023-08-01T14:46:50;1.40;;;1.00;;
92;SDS011;16232;48.800;9.002;2023-08-01T14:49:21;3.03;;;1.10;;
92;SDS011;16232;48.800;9.002;2023-08-01T14:51:48;1.77;;;0.90;;
92;SDS011;16232;48.800;9.002;2023-08-01T14:54:16;2.50;;;1.20;;
92;SDS011;16232;48.800;9.002;2023-08-01T14:56:44;2.10;;;1.23;;
92;SDS011;16232;48.800;9.002;2023-08-01T14:59:11;3.63;;;1.40;;
92;SDS011;16232;48.800;9.002;2023-08-01T15:01:39;3.10;;;1.10;;
92;SDS011;16232;48.800;9.002;2023-08-01T15:04:06;2.00;;;1.10;;
92;SDS011;16232;48.800;9.002;2023-08-01T15:06:35;3.73;;;1.23;;
92;SDS011;16232;48.800;9.002;2023-08-01T15:09:03;2.40;;;1.00;;
92;SDS011;16232;48.800;9.002;2023-08-01T15:11:30;1.90;;;1.00;;
92;SDS011;16232;48.800;9.002;2023-08-01T15:13:58;1.60;;;1.07;;
92;SDS011;16232;48.800;9.002;2023-08-01T15:16:25;2.23;;;1.27;;
92;SDS011;16232;48.800;9.002;2023-08-01T15:18:53;1.80;;;1.10;;
92;SDS011;16232;48.800;9.002;2023-08-01T15:21:20;2.03;;;1.13;;
92;SDS011;16232;48.800;9.002;2023-08-01T15:23:52;2.83;;;1.40;;
92;SDS011;16232;48.800;9.002;2023-08-01T15:26:19;1.63;;;1.03;;
92;SDS011;16232;48.800;9.002;2023-08-01T15:28:47;2.97;;;1.00;;
92;SDS011;16232;48.800;9.002;2023-08-01T15:31:14;1.13;;;1.00;;
92;SDS011;16232;48.800;9.002;2023-08-01T15:33:42;1.37;;;1.27;;